KONP

Newport Municipal Airport

Newport, Oregon, USA
KONP 232011Z 2320/2418 04014G22KT P6SM SKC FM240300 13007KT P6SM SKC FM241600 10005KT P6SM SKC
Issued Valid From Valid To
Apr-23 @ 20:11 UTC
(2 hours ago)
Apr-23 @ 20:00 UTC
(3 hours ago)
Apr-24 @ 18:00 UTC
(in 19 hours)
Apr-23 @ 20:00 to Apr-24 @ 03:00
KONP 232011Z 2320/2418 04014G22KT P6SM SKC
Wind Visibility Clouds
40° at 14 knots
 Gusting to 22 knots
Greater than 6 miles
  • Clear skies
From Apr-24 @ 03:00 to Apr-24 @ 16:00
FM240300 13007KT P6SM SKC
Wind Visibility Clouds
130° at 7 knots Greater than 6 miles
  • Clear skies
From Apr-24 @ 16:00 to Apr-24 @ 18:00
FM241600 10005KT P6SM SKC
Wind Visibility Clouds
100° at 5 knots Greater than 6 miles
  • Clear skies
KONP 232011Z 2320/2418 04014G22KT P6SM SKC FM240300 13007KT P6SM SKC FM241600 10005KT P6SM SKC
Issued Apr-23 @ 20:11 UTC
(2 hours ago)
Valid From Apr-23 @ 20:00 UTC
(3 hours ago)
Valid To Apr-24 @ 18:00 UTC
(in 19 hours)
Apr-23 @ 20:00 - Apr-24 @ 03:00
Wind Visibility
40° at 14 knots
 Gusting to 22 knots
Greater than 6 miles
Clouds
  • Clear skies
From Apr-24 @ 03:00 - Apr-24 @ 16:00
Wind Visibility
130° at 7 knots Greater than 6 miles
Clouds
  • Clear skies
From Apr-24 @ 16:00 - Apr-24 @ 18:00
Wind Visibility
100° at 5 knots Greater than 6 miles
Clouds
  • Clear skies